Time;durP1;ratioP1;P1;durP2;ratioP2;P2;SDS_P1;SDS_P2;PMS_P1;PMS_P2;Temp;Humidity;BMP_temperature;BMP_pressure;BME280_temperature;BME280_humidity;BME280_pressure;Samples;Min_cycle;Max_cycle;Signal;HPM_P1;HPM_P2
2022/01/29 00:01:04;;;;;;;15.40;5.60;;;;;;;-0.25;82.79;99276.65;106434;1277;30775;-73
2022/01/29 00:03:31;;;;;;;18.00;6.80;;;;;;;-0.24;82.51;99274.95;106075;1277;137931;-73
2022/01/29 00:05:59;;;;;;;16.90;6.30;;;;;;;-0.24;82.58;99275.39;106112;1277;22701;-73
2022/01/29 00:08:27;;;;;;;17.80;6.30;;;;;;;-0.22;82.53;99278.11;106149;1277;25224;-76
2022/01/29 00:11:12;;;;;;;17.10;6.80;;;;;;;-0.23;82.59;99278.90;105738;1277;137280;-73
2022/01/29 00:13:40;;;;;;;19.10;8.50;;;;;;;-0.25;82.73;99280.35;106332;1277;24074;-73
2022/01/29 00:16:07;;;;;;;15.30;7.20;;;;;;;-0.26;83.00;99280.27;105686;1277;137971;-73
2022/01/29 00:18:35;;;;;;;19.60;7.30;;;;;;;-0.25;82.79;99280.71;106050;1277;25368;-74
2022/01/29 00:21:03;;;;;;;20.80;7.80;;;;;;;-0.26;82.97;99281.91;105939;1278;137584;-73
2022/01/29 00:23:44;;;;;;;14.50;6.90;;;;;;;-0.27;83.09;99285.06;106066;1277;25350;-73
2022/01/29 00:26:11;;;;;;;15.90;6.60;;;;;;;-0.30;82.89;99285.71;106050;1277;23277;-73
2022/01/29 00:28:39;;;;;;;15.80;6.70;;;;;;;-0.33;83.00;99284.98;106069;1277;137677;-73
2022/01/29 00:31:10;;;;;;;12.30;6.00;;;;;;;-0.35;82.81;99290.15;106226;1277;22654;-73
2022/01/29 00:33:38;;;;;;;13.30;6.00;;;;;;;-0.35;82.77;99294.77;106005;1277;138884;-73
2022/01/29 00:36:05;;;;;;;17.10;7.00;;;;;;;-0.35;82.92;99292.63;106012;1277;25527;-73
2022/01/29 00:38:33;;;;;;;14.20;5.80;;;;;;;-0.36;82.62;99301.14;106110;1279;25459;-73
2022/01/29 00:41:01;;;;;;;17.10;6.50;;;;;;;-0.38;82.62;99297.05;106160;1277;137528;-73
2022/01/29 00:43:28;;;;;;;16.40;6.80;;;;;;;-0.41;82.83;99299.06;106085;1277;23918;-72
2022/01/29 00:45:55;;;;;;;14.40;6.50;;;;;;;-0.45;82.68;99296.27;106339;1277;138088;-72
2022/01/29 00:48:22;;;;;;;17.60;6.70;;;;;;;-0.48;82.73;99300.19;106654;1278;23342;-72
2022/01/29 00:50:50;;;;;;;15.80;6.00;;;;;;;-0.52;82.73;99300.74;106286;1277;138293;-72
2022/01/29 00:53:31;;;;;;;10.40;4.80;;;;;;;-0.53;82.72;99301.37;106174;1277;22544;-71
2022/01/29 00:55:58;;;;;;;14.10;6.10;;;;;;;-0.57;82.11;99307.48;106100;1277;22558;-71
2022/01/29 00:58:25;;;;;;;14.90;5.50;;;;;;;-0.61;82.33;99315.00;106045;1276;137615;-71
2022/01/29 01:00:52;;;;;;;11.30;5.60;;;;;;;-0.66;82.43;99314.48;106629;1276;22546;-71
2022/01/29 01:03:21;;;;;;;14.80;5.60;;;;;;;-0.72;82.34;99312.73;106405;1277;137636;-71
2022/01/29 01:05:48;;;;;;;13.30;4.90;;;;;;;-0.76;81.95;99309.39;106188;1277;25254;-71
2022/01/29 01:08:15;;;;;;;17.40;6.30;;;;;;;-0.79;81.93;99306.96;106326;1277;22632;-71
2022/01/29 01:10:42;;;;;;;14.50;5.30;;;;;;;-0.80;81.99;99301.20;106119;1277;137559;-71
2022/01/29 01:13:23;;;;;;;18.70;6.50;;;;;;;-0.82;82.04;99301.23;105945;1276;25495;-71
2022/01/29 01:15:50;;;;;;;12.80;5.70;;;;;;;-0.86;81.98;99296.98;105927;1277;137836;-71
2022/01/29 01:18:17;;;;;;;14.20;5.70;;;;;;;-0.90;81.92;99299.63;106042;1277;22583;-71
2022/01/29 01:20:45;;;;;;;14.30;5.00;;;;;;;-0.97;82.02;99301.73;106082;1277;22738;-70
2022/01/29 01:23:12;;;;;;;14.00;5.90;;;;;;;-1.01;82.21;99300.39;106074;1277;137821;-70
2022/01/29 01:25:39;;;;;;;17.10;5.40;;;;;;;-1.04;81.93;99298.92;106152;1277;23193;-71
2022/01/29 01:28:06;;;;;;;12.50;4.70;;;;;;;-1.06;81.87;99295.34;105764;1277;138893;-72
2022/01/29 01:30:35;;;;;;;13.90;5.60;;;;;;;-1.09;81.77;99295.81;105761;1277;22378;-71
2022/01/29 01:33:04;;;;;;;15.10;5.40;;;;;;;-1.12;81.95;99293.10;105712;1276;138261;-71
2022/01/29 01:35:41;;;;;;;13.80;4.90;;;;;;;-1.18;81.81;99290.23;105815;1277;24276;-71
2022/01/29 01:40:41;;;;;;;12.20;5.70;;;;;;;-1.28;81.94;99291.75;105919;1276;137992;-71
2022/01/29 01:43:08;;;;;;;10.00;4.60;;;;;;;-1.32;81.87;99289.33;105988;1277;30594;-71
2022/01/29 01:45:35;;;;;;;13.30;5.30;;;;;;;-1.34;82.03;99283.05;105742;1277;138599;-71
2022/01/29 01:48:05;;;;;;;14.80;5.10;;;;;;;-1.35;82.05;99282.70;106101;1277;24383;-71
2022/01/29 01:50:33;;;;;;;;;;;;;;;-1.37;82.16;99278.23;106082;1277;24073;-71
2022/01/29 01:53:03;;;;;;;12.70;4.60;;;;;;;-1.40;82.14;99278.70;105998;1277;124085;-73
2022/01/29 01:55:30;;;;;;;13.70;5.10;;;;;;;-1.44;82.08;99276.21;106020;1277;22600;-72
2022/01/29 01:57:58;;;;;;;12.80;5.10;;;;;;;-1.50;82.14;99279.77;105815;1280;138095;-71
2022/01/29 02:00:26;;;;;;;9.80;4.30;;;;;;;-1.53;82.00;99275.61;105939;1277;22607;-71
2022/01/29 02:02:54;;;;;;;16.20;5.50;;;;;;;-1.55;81.90;99271.20;106150;1277;137946;-71
2022/01/29 02:05:21;;;;;;;13.30;4.50;;;;;;;-1.56;81.95;99276.24;105825;1277;22739;-71
2022/01/29 02:07:49;;;;;;;12.90;4.70;;;;;;;-1.57;82.06;99273.55;105832;1277;22571;-71
2022/01/29 02:10:18;;;;;;;15.40;5.70;;;;;;;-1.61;81.90;99272.69;105956;1277;137576;-71
2022/01/29 02:12:49;;;;;;;16.40;7.20;;;;;;;-1.64;82.11;99273.34;106283;1277;25368;-71
2022/01/29 02:15:21;;;;;;;18.10;6.20;;;;;;;-1.68;82.18;99274.05;106019;1277;138028;-71
2022/01/29 02:17:48;;;;;;;14.10;7.00;;;;;;;-1.71;82.11;99274.18;106312;1277;22558;-71
2022/01/29 02:20:18;;;;;;;11.70;4.60;;;;;;;-1.73;82.09;99273.84;106129;1277;24235;-71
2022/01/29 02:22:46;;;;;;;12.60;4.60;;;;;;;-1.75;81.98;99272.01;105943;1277;137694;-70
2022/01/29 02:25:45;;;;;;;11.10;3.80;;;;;;;-1.77;82.00;99273.11;106041;1277;25393;-71
2022/01/29 02:28:15;;;;;;;8.90;3.60;;;;;;;-1.82;81.91;99273.22;105986;1277;137690;-70
2022/01/29 02:30:45;;;;;;;10.50;3.90;;;;;;;-1.84;82.04;99276.15;106307;1277;22576;-70
2022/01/29 02:33:15;;;;;;;10.80;3.90;;;;;;;-1.87;82.01;99281.16;106032;1277;138103;-71
2022/01/29 02:35:45;;;;;;;8.90;4.00;;;;;;;-1.87;82.04;99280.98;106116;1276;22566;-70
2022/01/29 02:38:14;;;;;;;17.50;4.70;;;;;;;-1.85;81.98;99284.98;106051;1277;22562;-71
2022/01/29 02:40:49;;;;;;;11.90;3.90;;;;;;;-1.85;81.99;99287.79;105992;1276;137517;-73
2022/01/29 02:43:20;;;;;;;9.50;3.80;;;;;;;-1.85;81.84;99286.71;106326;1276;26488;-71
2022/01/29 02:45:49;;;;;;;14.10;4.40;;;;;;;-1.87;81.68;99280.31;106144;1280;137475;-71
2022/01/29 02:48:16;;;;;;;11.60;4.30;;;;;;;-1.87;81.78;99276.58;106232;1277;23376;-71
2022/01/29 02:50:43;;;;;;;8.30;4.30;;;;;;;-1.87;81.73;99278.21;106173;1277;22618;-71
2022/01/29 02:53:10;;;;;;;7.00;3.40;;;;;;;-1.86;81.68;99275.27;105927;1277;138435;-72
2022/01/29 02:55:37;;;;;;;9.40;4.60;;;;;;;-1.85;81.60;99273.16;105967;1277;22550;-72
2022/01/29 02:58:05;;;;;;;13.80;5.00;;;;;;;-1.85;81.70;99277.23;105982;1277;138294;-72
2022/01/29 03:00:32;;;;;;;14.30;5.30;;;;;;;-1.87;81.56;99282.42;106052;1278;22627;-72
2022/01/29 03:02:59;;;;;;;9.20;5.10;;;;;;;-1.90;81.63;99290.32;106247;1277;137725;-72
2022/01/29 03:05:27;;;;;;;14.50;5.90;;;;;;;-1.93;81.82;99286.73;106333;1277;24376;-72
2022/01/29 03:07:53;;;;;;;15.20;6.60;;;;;;;-1.96;81.73;99283.32;106177;1277;23207;-72
2022/01/29 03:10:35;;;;;;;14.20;5.80;;;;;;;-1.99;82.04;99285.85;105970;1277;138107;-72
2022/01/29 03:13:02;;;;;;;10.60;5.70;;;;;;;-2.00;82.07;99282.09;106132;1277;24321;-72
2022/01/29 03:15:29;;;;;;;16.70;7.00;;;;;;;-2.01;82.15;99282.55;106292;1277;137682;-72
2022/01/29 03:17:56;;;;;;;16.10;7.00;;;;;;;-2.03;82.13;99281.23;106449;1277;25375;-72
2022/01/29 03:20:23;;;;;;;13.90;6.30;;;;;;;-2.04;82.40;99277.63;106370;1277;22544;-72
2022/01/29 03:22:51;;;;;;;13.00;6.20;;;;;;;-2.06;82.43;99274.11;106043;1277;137571;-72
2022/01/29 03:25:18;;;;;;;15.10;7.40;;;;;;;-2.10;82.51;99268.02;106438;1277;22568;-72
2022/01/29 03:27:45;;;;;;;13.30;6.90;;;;;;;-2.11;82.39;99267.05;105938;1277;138360;-72
2022/01/29 03:30:26;;;;;;;13.30;6.60;;;;;;;-2.11;82.60;99263.69;106016;1277;22574;-72
2022/01/29 03:32:52;;;;;;;14.10;7.00;;;;;;;-2.10;82.59;99265.04;105901;1278;137818;-72
2022/01/29 03:35:19;;;;;;;14.80;6.00;;;;;;;-2.10;82.41;99263.98;105974;1276;24432;-72
2022/01/29 03:37:46;;;;;;;12.50;6.50;;;;;;;-2.13;82.46;99264.75;106154;1277;24428;-72
2022/01/29 03:40:13;;;;;;;10.60;5.90;;;;;;;-2.16;82.50;99263.95;105961;1276;137600;-72
2022/01/29 03:42:56;;;;;;;16.20;7.10;;;;;;;-2.19;82.48;99264.04;106522;1276;23608;-72
2022/01/29 03:45:23;;;;;;;13.10;6.80;;;;;;;-2.22;82.43;99263.45;106088;1280;138074;-72
2022/01/29 03:47:50;;;;;;;16.40;7.40;;;;;;;-2.23;82.56;99259.30;105902;1277;22826;-72
2022/01/29 03:50:17;;;;;;;14.80;6.70;;;;;;;-2.23;82.56;99254.52;106132;1277;23095;-72
2022/01/29 03:52:44;;;;;;;14.40;6.00;;;;;;;-2.24;82.54;99251.38;105755;1277;138378;-72
2022/01/29 03:55:11;;;;;;;17.20;7.00;;;;;;;-2.28;82.54;99251.55;105767;1277;25260;-73
2022/01/29 03:57:38;;;;;;;14.10;6.40;;;;;;;-2.29;82.65;99253.30;105942;1277;137991;-73
2022/01/29 04:00:06;;;;;;;16.30;7.00;;;;;;;-2.33;82.46;99248.09;105688;1277;25410;-72
2022/01/29 04:02:33;;;;;;;16.60;6.70;;;;;;;-2.35;82.33;99250.26;105833;1277;24224;-73
2022/01/29 04:05:00;;;;;;;12.50;7.20;;;;;;;-2.36;82.38;99249.61;105764;1276;137896;-73
2022/01/29 04:07:27;;;;;;;16.70;6.90;;;;;;;-2.35;82.54;99245.62;105979;1277;24427;-72
2022/01/29 04:09:55;;;;;;;17.10;7.20;;;;;;;-2.36;82.64;99247.34;105929;1277;137671;-73
2022/01/29 04:12:25;;;;;;;17.90;7.40;;;;;;;-2.39;82.55;99242.80;106309;1277;22547;-73
2022/01/29 04:14:53;;;;;;;15.50;7.90;;;;;;;-2.42;82.57;99243.10;105951;1277;137942;-72
2022/01/29 04:17:20;;;;;;;15.70;7.10;;;;;;;-2.47;82.37;99237.49;106047;1277;23275;-72
2022/01/29 04:19:47;;;;;;;13.40;7.00;;;;;;;-2.47;82.62;99237.00;106024;1277;25333;-73
2022/01/29 04:22:14;;;;;;;17.30;7.50;;;;;;;-2.47;82.74;99240.41;105930;1277;137867;-73
2022/01/29 04:24:41;;;;;;;18.90;7.50;;;;;;;-2.48;82.55;99244.73;106214;1276;22717;-73
2022/01/29 04:27:16;;;;;;;16.20;7.30;;;;;;;-2.50;82.69;99242.35;105880;1276;137822;-74
2022/01/29 04:29:54;;;;;;;13.90;6.90;;;;;;;-2.53;82.92;99244.23;105869;1276;22560;-74
2022/01/29 04:32:31;;;;;;;15.50;7.20;;;;;;;-2.56;83.28;99244.60;106265;1277;25910;-73
2022/01/29 04:34:58;;;;;;;14.60;8.00;;;;;;;-2.59;83.05;99244.36;105958;1277;138531;-73
2022/01/29 04:37:25;;;;;;;15.30;7.70;;;;;;;-2.61;83.33;99247.91;105878;1277;25562;-72
2022/01/29 04:39:51;;;;;;;15.10;7.20;;;;;;;-2.62;83.15;99244.24;105794;1277;137639;-72
2022/01/29 04:42:18;;;;;;;14.80;6.70;;;;;;;-2.64;82.90;99245.11;105988;1277;22541;-73
2022/01/29 04:44:45;;;;;;;15.20;8.10;;;;;;;-2.68;83.26;99241.19;106002;1276;23953;-74
2022/01/29 04:47:12;;;;;;;15.10;7.60;;;;;;;-2.71;83.44;99241.64;105751;1277;137780;-72
2022/01/29 04:49:39;;;;;;;18.30;9.40;;;;;;;-2.74;83.33;99239.45;106005;1277;25452;-73
2022/01/29 04:52:06;;;;;;;17.00;9.60;;;;;;;-2.76;83.38;99238.94;105869;1277;138092;-72
2022/01/29 04:54:33;;;;;;;16.10;8.30;;;;;;;-2.77;83.59;99241.35;105676;1277;23426;-72
2022/01/29 04:57:00;;;;;;;20.20;9.40;;;;;;;-2.76;83.25;99239.84;106044;1277;137648;-71
2022/01/29 04:59:27;;;;;;;16.70;8.90;;;;;;;-2.76;83.62;99237.14;106103;1277;25330;-71
2022/01/29 05:01:54;;;;;;;16.00;8.90;;;;;;;-2.77;83.35;99234.93;105972;1277;24259;-71
2022/01/29 05:04:21;;;;;;;16.90;10.30;;;;;;;-2.78;83.36;99230.92;105620;1277;137474;-73
2022/01/29 05:06:48;;;;;;;15.70;9.90;;;;;;;-2.80;83.28;99221.18;105892;1277;24256;-73
2022/01/29 05:09:15;;;;;;;19.70;9.40;;;;;;;-2.80;83.57;99221.35;105869;1276;138340;-72
2022/01/29 05:11:46;;;;;;;21.40;9.60;;;;;;;-2.80;83.38;99214.06;105956;1276;24321;-72
2022/01/29 05:14:24;;;;;;;20.60;9.90;;;;;;;-2.80;83.64;99216.16;106083;1277;22564;-72
2022/01/29 05:26:48;;;;;;;22.90;10.30;;;;;;;-2.81;83.59;99213.77;106042;1277;137695;-72
2022/01/29 05:28:00;;;;;;;17.00;8.60;;;;;;;-2.89;83.70;99209.15;106050;1277;137869;-73
2022/01/29 05:30:27;;;;;;;18.60;9.40;;;;;;;-2.90;83.75;99210.33;106081;1277;22715;-73
2022/01/29 05:32:54;;;;;;;15.60;8.20;;;;;;;-2.92;83.72;99209.43;105892;1277;138588;-73
2022/01/29 05:35:21;;;;;;;20.00;9.40;;;;;;;-2.93;83.80;99209.77;106207;1277;22607;-72
2022/01/29 05:37:50;;;;;;;21.40;11.00;;;;;;;-2.96;83.66;99209.09;106074;1277;22568;-72
2022/01/29 05:40:31;;;;;;;24.60;11.30;;;;;;;-2.98;83.81;99213.77;105992;1277;139049;-73
2022/01/29 05:42:58;;;;;;;21.70;11.10;;;;;;;-3.00;83.95;99211.64;105986;1277;22620;-72
2022/01/29 05:45:25;;;;;;;21.60;10.90;;;;;;;-3.02;84.03;99209.00;105995;1277;137926;-72
2022/01/29 05:48:06;;;;;;;26.20;11.50;;;;;;;-3.05;84.30;99207.30;105999;1277;29708;-72
2022/01/29 05:50:33;;;;;;;23.60;10.50;;;;;;;-3.07;84.08;99214.00;106155;1277;25314;-72
2022/01/29 05:53:00;;;;;;;20.80;10.90;;;;;;;-3.10;84.62;99212.17;106027;1278;137995;-72
2022/01/29 05:55:27;;;;;;;20.80;9.30;;;;;;;-3.14;84.39;99210.34;106128;1276;22795;-75
2022/01/29 05:57:54;;;;;;;21.40;11.10;;;;;;;-3.14;84.53;99208.83;106105;1277;138381;-73
2022/01/29 06:00:21;;;;;;;25.60;11.90;;;;;;;-3.15;84.69;99208.73;106169;1277;25319;-72
2022/01/29 06:02:58;;;;;;;21.80;11.10;;;;;;;-3.16;84.45;99210.62;106273;1277;22573;-73
2022/01/29 06:05:25;;;;;;;22.80;10.50;;;;;;;-3.19;84.43;99206.02;106189;1277;137609;-72
2022/01/29 06:07:52;;;;;;;24.80;12.00;;;;;;;-3.22;84.61;99199.91;106010;1277;25362;-72
2022/01/29 06:10:19;;;;;;;20.90;12.10;;;;;;;-3.22;84.66;99202.30;106101;1277;137973;-72
2022/01/29 06:12:57;;;;;;;23.20;11.80;;;;;;;-3.22;84.66;99199.59;106275;1276;24269;-73
2022/01/29 06:15:24;;;;;;;25.90;12.60;;;;;;;-3.21;84.60;99202.69;106082;1277;137935;-73
2022/01/29 06:17:51;;;;;;;25.80;14.30;;;;;;;-3.20;84.91;99202.45;106133;1277;25538;-72
2022/01/29 06:20:18;;;;;;;31.60;15.90;;;;;;;-3.21;84.62;99201.96;106008;1277;22552;-73
2022/01/29 06:22:46;;;;;;;29.80;15.70;;;;;;;-3.23;85.00;99203.44;106038;1277;137656;-73
2022/01/29 06:25:13;;;;;;;31.40;15.80;;;;;;;-3.25;85.25;99208.67;106210;1277;22586;-72
2022/01/29 06:27:40;;;;;;;23.00;13.40;;;;;;;-3.24;84.78;99209.52;106026;1276;138473;-72
2022/01/29 06:30:07;;;;;;;30.50;17.70;;;;;;;-3.23;84.92;99203.21;105895;1277;22546;-73
2022/01/29 06:32:34;;;;;;;32.70;18.50;;;;;;;-3.21;84.90;99205.94;105943;1276;25360;-73
2022/01/29 06:35:02;;;;;;;33.40;16.80;;;;;;;-3.20;85.40;99206.34;105901;1278;137771;-73
2022/01/29 06:37:29;;;;;;;32.10;17.70;;;;;;;-3.18;85.16;99203.33;106083;1277;24289;-73
2022/01/29 06:39:56;;;;;;;29.90;17.30;;;;;;;-3.15;85.52;99199.63;106088;1277;139516;-73
2022/01/29 06:42:23;;;;;;;27.20;14.30;;;;;;;-3.11;85.19;99195.88;106369;1277;22696;-73
2022/01/29 06:44:50;;;;;;;29.00;16.00;;;;;;;-3.06;85.40;99189.09;106046;1277;22574;-73
2022/01/29 06:47:17;;;;;;;36.10;18.40;;;;;;;-3.03;85.47;99184.75;105991;1277;137629;-73
2022/01/29 06:49:44;;;;;;;26.70;16.60;;;;;;;-3.02;85.13;99177.17;106284;1277;22670;-73
2022/01/29 06:52:11;;;;;;;39.70;19.90;;;;;;;-3.01;84.95;99172.84;106146;1277;138337;-73
2022/01/29 06:54:38;;;;;;;37.30;18.70;;;;;;;-2.99;85.25;99176.93;106364;1277;23804;-73
2022/01/29 06:57:05;;;;;;;25.20;14.90;;;;;;;-2.96;85.12;99180.73;106253;1276;22551;-73
2022/01/29 06:59:32;;;;;;;37.00;17.60;;;;;;;-2.92;85.34;99186.73;106102;1277;137618;-72
2022/01/29 07:01:59;;;;;;;29.50;16.40;;;;;;;-2.88;85.12;99182.41;105770;1277;22616;-73
2022/01/29 07:04:26;;;;;;;30.20;15.20;;;;;;;-2.85;85.14;99170.45;105842;1277;137835;-73
2022/01/29 07:06:53;;;;;;;34.10;17.00;;;;;;;-2.82;84.95;99171.48;106180;1277;22697;-73
2022/01/29 07:09:20;;;;;;;28.40;15.10;;;;;;;-2.79;85.28;99166.36;106077;1278;138685;-73
2022/01/29 07:11:54;;;;;;;25.10;13.10;;;;;;;-2.73;85.04;99166.89;106133;1276;24383;-73
2022/01/29 07:14:21;;;;;;;34.50;14.70;;;;;;;-2.68;84.91;99168.88;106113;1277;22708;-73
2022/01/29 07:16:48;;;;;;;33.60;15.30;;;;;;;-2.63;84.88;99164.85;105814;1276;138290;-73
2022/01/29 07:19:15;;;;;;;32.50;15.40;;;;;;;-2.60;84.91;99165.63;105948;1277;22603;-73
2022/01/29 07:21:42;;;;;;;32.60;15.50;;;;;;;-2.59;84.30;99169.17;106062;1277;138300;-73
2022/01/29 07:24:08;;;;;;;26.40;13.40;;;;;;;-2.59;84.61;99159.48;106150;1277;22565;-73
2022/01/29 07:26:35;;;;;;;26.90;13.60;;;;;;;-2.54;84.52;99165.39;106000;1277;25369;-73
2022/01/29 07:29:02;;;;;;;25.00;12.70;;;;;;;-2.48;84.33;99164.02;106171;1277;138856;-73
2022/01/29 07:31:29;;;;;;;26.20;14.40;;;;;;;-2.44;84.34;99156.77;106268;1277;25375;-73
2022/01/29 07:33:56;;;;;;;25.40;12.90;;;;;;;-2.42;84.28;99151.50;106196;1277;138055;-73
2022/01/29 07:36:23;;;;;;;29.50;13.70;;;;;;;-2.42;84.21;99147.59;106124;1276;22543;-73
2022/01/29 07:38:50;;;;;;;26.00;14.00;;;;;;;-2.42;83.93;99149.59;106249;1277;25434;-75
2022/01/29 07:41:17;;;;;;;32.40;13.80;;;;;;;-2.42;84.09;99146.92;106101;1277;138056;-73
2022/01/29 07:43:44;;;;;;;28.30;14.10;;;;;;;-2.38;84.03;99145.80;106035;1277;22551;-73
2022/01/29 07:46:11;;;;;;;23.10;11.30;;;;;;;-2.31;84.15;99140.73;106078;1277;138145;-73
2022/01/29 07:48:38;;;;;;;21.40;11.80;;;;;;;-2.24;83.76;99140.06;105979;1277;22773;-73
2022/01/29 07:51:05;;;;;;;27.30;12.50;;;;;;;-2.19;83.85;99138.34;106025;1277;22609;-73
2022/01/29 07:53:32;;;;;;;28.50;13.10;;;;;;;-2.14;83.58;99142.63;105840;1277;137675;-73
2022/01/29 07:55:58;;;;;;;26.20;13.40;;;;;;;-2.09;83.56;99144.16;106154;1277;25359;-73
2022/01/29 07:58:25;;;;;;;24.40;12.10;;;;;;;-2.05;83.55;99141.61;105991;1280;138043;-73
2022/01/29 08:00:53;;;;;;;29.00;13.30;;;;;;;-2.00;83.30;99137.02;106189;1277;24292;-72
2022/01/29 08:03:20;;;;;;;27.10;13.10;;;;;;;-1.92;83.29;99137.02;106021;1277;138927;-73
2022/01/29 08:05:47;;;;;;;26.20;11.00;;;;;;;-1.84;82.96;99123.56;106439;1277;22537;-73
2022/01/29 08:08:14;;;;;;;22.60;11.10;;;;;;;-1.74;82.71;99121.33;106029;1278;22558;-73
2022/01/29 08:10:41;;;;;;;23.40;10.90;;;;;;;-1.62;82.39;99116.48;106057;1276;137987;-73
2022/01/29 08:13:08;;;;;;;23.80;10.90;;;;;;;-1.50;82.63;99115.84;106212;1276;23381;-73
2022/01/29 08:15:35;;;;;;;26.20;11.70;;;;;;;-1.42;82.03;99117.19;106107;1277;137946;-73
2022/01/29 08:18:02;;;;;;;24.30;11.10;;;;;;;-1.38;81.51;99111.25;106160;1276;22553;-73
2022/01/29 08:20:29;;;;;;;23.20;12.10;;;;;;;-1.36;81.61;99111.05;106049;1276;26019;-72
2022/01/29 08:22:56;;;;;;;30.40;13.20;;;;;;;-1.33;81.31;99108.42;106128;1277;138208;-73
2022/01/29 08:25:23;;;;;;;27.70;12.20;;;;;;;-1.30;81.24;99108.38;105907;1277;24258;-73
2022/01/29 08:27:50;;;;;;;31.40;13.40;;;;;;;-1.26;81.31;99101.65;105882;1277;138490;-73
2022/01/29 08:30:17;;;;;;;28.60;13.00;;;;;;;-1.17;81.38;99098.35;107189;1276;25458;-73
2022/01/29 08:32:44;;;;;;;24.90;12.80;;;;;;;-1.11;81.10;99093.05;106416;1279;22631;-73
2022/01/29 08:35:14;;;;;;;26.20;12.70;;;;;;;-1.06;80.90;99091.66;106291;1276;137623;-73
2022/01/29 08:37:56;;;;;;;32.00;13.80;;;;;;;-0.99;80.77;99086.48;106494;1276;24341;-73
2022/01/29 08:40:24;;;;;;;37.80;14.90;;;;;;;-0.93;80.63;99083.11;106577;1277;137976;-73
2022/01/29 08:42:52;;;;;;;34.00;13.00;;;;;;;-0.88;80.61;99081.49;106319;1277;22551;-73
2022/01/29 08:45:19;;;;;;;29.80;12.80;;;;;;;-0.84;80.18;99078.59;105834;1277;137832;-73
2022/01/29 08:47:46;;;;;;;34.00;14.20;;;;;;;-0.80;80.14;99077.85;106029;1277;24302;-72
2022/01/29 08:50:14;;;;;;;31.80;14.20;;;;;;;-0.74;79.67;99077.21;106189;1277;22540;-72
2022/01/29 08:52:41;;;;;;;34.70;14.70;;;;;;;-0.67;79.41;99072.02;105963;1277;137658;-72
2022/01/29 08:55:10;;;;;;;24.90;10.70;;;;;;;-0.62;79.50;99068.31;105737;1277;22783;-72
2022/01/29 08:57:38;;;;;;;27.30;12.90;;;;;;;-0.56;79.48;99072.28;105968;1277;138066;-72
2022/01/29 09:00:09;;;;;;;24.60;10.70;;;;;;;-0.48;79.75;99066.55;106025;1277;23959;-72
2022/01/29 09:02:36;;;;;;;24.90;10.30;;;;;;;-0.41;79.40;99064.03;106025;1277;22900;-72
2022/01/29 09:05:04;;;;;;;22.70;10.60;;;;;;;-0.34;78.97;99057.29;105807;1277;138229;-73
2022/01/29 09:07:32;;;;;;;21.70;8.50;;;;;;;-0.28;78.35;99051.63;106217;1277;22803;-73
2022/01/29 09:09:59;;;;;;;15.40;6.80;;;;;;;-0.21;77.47;99053.53;106404;1277;137897;-72
2022/01/29 09:12:26;;;;;;;19.70;7.90;;;;;;;-0.11;77.15;99050.85;106101;1276;22597;-72
2022/01/29 09:14:53;;;;;;;19.30;7.10;;;;;;;-0.00;76.78;99050.61;106001;1276;23304;-72
2022/01/29 09:17:35;;;;;;;21.60;7.80;;;;;;;0.10;76.62;99045.14;106095;1277;137666;-72
2022/01/29 09:20:03;;;;;;;20.90;8.20;;;;;;;0.19;75.72;99038.40;106175;1276;22689;-72
2022/01/29 09:22:29;;;;;;;20.30;8.80;;;;;;;0.28;75.56;99042.33;106196;1277;138007;-72
2022/01/29 09:24:56;;;;;;;20.00;8.80;;;;;;;0.35;75.46;99031.55;106135;1277;22572;-75
2022/01/29 09:27:23;;;;;;;20.90;8.40;;;;;;;0.43;74.82;99033.20;105743;1277;138282;-73
2022/01/29 09:29:50;;;;;;;19.20;7.30;;;;;;;0.50;75.24;99027.05;106126;1277;22547;-73
2022/01/29 09:32:17;;;;;;;20.00;7.70;;;;;;;0.58;74.83;99022.80;106192;1276;25371;-73
2022/01/29 09:34:44;;;;;;;15.90;7.00;;;;;;;0.65;73.86;99019.23;106185;1276;137971;-73
2022/01/29 09:37:11;;;;;;;17.00;6.40;;;;;;;0.72;73.79;99014.33;106286;1277;24220;-73
2022/01/29 09:39:38;;;;;;;16.50;7.00;;;;;;;0.82;73.44;99011.64;106156;1277;138303;-73
2022/01/29 09:42:06;;;;;;;16.60;6.70;;;;;;;0.91;72.88;99011.83;105981;1277;23922;-73
2022/01/29 09:44:34;;;;;;;17.00;6.50;;;;;;;1.00;72.42;99006.49;106156;1277;23917;-73
2022/01/29 09:47:05;;;;;;;22.60;7.00;;;;;;;1.09;72.51;99001.55;105869;1280;137893;-73
2022/01/29 09:49:33;;;;;;;13.80;6.10;;;;;;;1.17;72.57;98996.13;106377;1277;22582;-73
2022/01/29 09:52:02;;;;;;;15.60;6.40;;;;;;;1.27;72.38;98992.89;106252;1277;138299;-74
2022/01/29 09:54:29;;;;;;;16.50;6.20;;;;;;;1.35;71.81;98986.27;106126;1277;22896;-73
2022/01/29 09:56:56;;;;;;;15.90;5.90;;;;;;;1.41;71.21;98984.37;105797;1278;410756;-73
2022/01/29 09:59:23;;;;;;;15.50;5.30;;;;;;;1.46;71.27;98977.33;106031;1276;138519;-73
2022/01/29 10:01:50;;;;;;;15.40;5.80;;;;;;;1.52;70.84;98972.05;106013;1277;22544;-73
2022/01/29 10:04:45;;;;;;;14.00;6.40;;;;;;;1.60;70.98;98961.64;105817;1277;137726;-73
2022/01/29 10:07:15;;;;;;;15.90;6.40;;;;;;;1.73;71.33;98955.84;106228;1277;23307;-73
2022/01/29 10:09:58;;;;;;;15.70;6.20;;;;;;;1.88;70.93;98952.04;106158;1277;138102;-73
2022/01/29 10:12:28;;;;;;;16.10;6.50;;;;;;;1.99;70.63;98945.35;106236;1277;24263;-74
2022/01/29 10:15:01;;;;;;;14.60;5.80;;;;;;;2.15;70.76;98937.23;106357;1277;23917;-74
2022/01/29 10:17:48;;;;;;;16.10;6.50;;;;;;;2.33;70.78;98934.72;106130;1277;137346;-76
2022/01/29 10:20:29;;;;;;;10.90;5.30;;;;;;;2.48;69.38;98938.40;106355;1277;23149;-73
2022/01/29 10:23:00;;;;;;;11.70;4.60;;;;;;;2.53;68.52;98938.48;106205;1277;137276;-74
2022/01/29 10:25:28;;;;;;;15.50;5.10;;;;;;;2.51;67.76;98934.48;106350;1277;22547;-74
2022/01/29 10:28:11;;;;;;;14.10;5.00;;;;;;;2.46;67.56;98933.71;106285;1277;137569;-73
2022/01/29 10:31:01;;;;;;;11.30;4.70;;;;;;;2.42;67.48;98926.33;106152;1277;22636;-73
2022/01/29 10:33:37;;;;;;;11.60;4.60;;;;;;;2.38;67.17;98924.17;106461;1277;138129;-72
2022/01/29 10:36:07;;;;;;;15.50;5.20;;;;;;;2.34;67.50;98920.69;106156;1277;22585;-73
2022/01/29 10:38:40;;;;;;;11.20;5.00;;;;;;;2.31;67.61;98908.71;106091;1280;24420;-73
2022/01/29 10:41:22;;;;;;;14.00;5.60;;;;;;;2.28;68.07;98904.54;106126;1277;138252;-73
2022/01/29 10:44:18;;;;;;;14.90;5.40;;;;;;;2.26;67.86;98896.89;106540;1277;29028;-74
2022/01/29 10:46:50;;;;;;;13.70;4.80;;;;;;;2.27;68.24;98890.67;106205;1277;138504;-73
2022/01/29 10:49:22;;;;;;;15.20;5.40;;;;;;;2.30;67.98;98889.52;106243;1280;22572;-73
2022/01/29 10:52:10;;;;;;;13.40;5.90;;;;;;;2.36;67.82;98881.80;106172;1277;137501;-73
2022/01/29 10:54:39;;;;;;;11.10;4.70;;;;;;;2.46;67.67;98884.52;106245;1279;24338;-72
2022/01/29 10:57:11;;;;;;;12.40;4.00;;;;;;;2.53;67.55;98882.08;106063;1278;22548;-72
2022/01/29 10:59:53;;;;;;;13.50;5.00;;;;;;;2.60;67.27;98878.14;106050;1279;22547;-71
2022/01/29 11:02:34;;;;;;;13.00;4.30;;;;;;;2.64;66.99;98878.57;105904;1277;22544;-71
2022/01/29 11:05:03;;;;;;;11.70;5.30;;;;;;;2.66;67.19;98877.98;106159;1277;22639;-71
2022/01/29 11:07:50;;;;;;;25.00;6.20;;;;;;;2.67;66.83;98872.52;106024;1280;22555;-71
2022/01/29 11:10:18;;;;;;;12.10;4.70;;;;;;;2.65;66.56;98865.35;105991;1277;25312;-71
2022/01/29 11:12:47;;;;;;;13.90;5.60;;;;;;;2.63;66.15;98862.17;106025;1280;22726;-71
2022/01/29 11:15:16;;;;;;;12.70;4.60;;;;;;;2.61;65.82;98852.83;105966;1277;22559;-71
2022/01/29 11:17:44;;;;;;;;;;;;;;;2.56;65.41;98846.56;106372;1277;23190;-71
2022/01/29 11:20:12;;;;;;;19.70;4.60;;;;;;;2.52;65.99;98841.13;106838;1277;26667;-71
2022/01/29 11:22:43;;;;;;;10.80;4.50;;;;;;;2.52;66.25;98832.69;107200;1277;22589;-72
2022/01/29 11:25:23;;;;;;;12.70;4.40;;;;;;;2.52;66.33;98829.41;107272;1277;22613;-72
2022/01/29 11:28:13;;;;;;;11.90;4.50;;;;;;;2.51;66.30;98824.41;107157;1277;22565;-71
2022/01/29 11:30:43;;;;;;;12.60;4.80;;;;;;;2.51;66.36;98813.55;106634;1276;22562;-71
2022/01/29 11:33:11;;;;;;;13.90;5.80;;;;;;;2.53;66.37;98805.60;106070;1277;22646;-71
2022/01/29 11:35:53;;;;;;;19.10;6.20;;;;;;;2.54;66.49;98795.36;106027;1277;22710;-71